Time;durP1;ratioP1;P1;durP2;ratioP2;P2;SDS_P1;SDS_P2;PMS_P1;PMS_P2;Temp;Humidity;BMP_temperature;BMP_pressure;BME280_temperature;BME280_humidity;BME280_pressure;Samples;Min_cycle;Max_cycle;Signal;HPM_P1;HPM_P2
2022/07/13 00:00:08;;;;;;;5.82;3.17;;;20.30;99.90;;;;;;6208674;23;20047;-89
2022/07/13 00:02:40;;;;;;;2.63;2.42;;;20.60;99.90;;;;;;6232729;23;20012;-90
2022/07/13 00:05:14;;;;;;;2.42;2.22;;;20.30;99.90;;;;;;6232294;23;20016;-90
2022/07/13 00:07:46;;;;;;;4.60;2.33;;;20.20;99.90;;;;;;6210077;23;20023;-90
2022/07/13 00:10:20;;;;;;;3.13;2.53;;;20.30;99.90;;;;;;6233088;23;20016;-89
2022/07/13 00:12:48;;;;;;;2.50;2.30;;;20.20;99.90;;;;;;6260071;23;20016;-89
2022/07/13 00:15:21;;;;;;;3.35;2.30;;;20.50;99.90;;;;;;6235982;23;20012;-90
2022/07/13 00:17:53;;;;;;;2.67;2.47;;;20.50;99.90;;;;;;6234934;23;20023;-89
2022/07/13 00:20:22;;;;;;;3.75;2.60;;;20.10;99.90;;;;;;6232750;23;20016;-89
2022/07/13 00:22:53;;;;;;;2.95;2.75;;;20.20;99.90;;;;;;6233339;23;20035;-92
2022/07/13 00:25:22;;;;;;;3.05;2.85;;;20.20;99.90;;;;;;6230325;23;20020;-92
2022/07/13 00:27:48;;;;;;;3.13;2.83;;;20.20;99.90;;;;;;6227164;23;20012;-90
2022/07/13 00:30:14;;;;;;;2.67;2.47;;;20.20;99.90;;;;;;6229926;23;20012;-91
2022/07/13 00:32:55;;;;;;;2.90;2.70;;;20.20;99.90;;;;;;6229719;23;20095;-92
2022/07/13 00:35:27;;;;;;;2.95;2.65;;;20.20;99.90;;;;;;6180878;23;20020;-92
2022/07/13 00:37:56;;;;;;;2.92;2.72;;;20.10;99.90;;;;;;6215225;23;20020;-89
2022/07/13 00:40:28;;;;;;;3.10;2.90;;;20.20;99.90;;;;;;6197366;23;20046;-92
2022/07/13 00:43:06;;;;;;;3.45;3.15;;;20.30;99.90;;;;;;6225681;23;20008;-89
2022/07/13 00:45:39;;;;;;;4.75;3.13;;;20.30;99.90;;;;;;6231700;23;20047;-89
2022/07/13 00:48:12;;;;;;;3.50;3.20;;;20.30;99.90;;;;;;6224966;23;20012;-91
2022/07/13 00:50:41;;;;;;;4.05;2.90;;;20.10;99.90;;;;;;6184447;23;20012;-93
2022/07/13 00:53:12;;;;;;;3.22;2.92;;;20.30;99.90;;;;;;6231033;23;20012;-89
2022/07/13 00:55:43;;;;;;;3.05;2.83;;;20.30;99.90;;;;;;6175097;23;20008;-91
2022/07/13 00:58:12;;;;;;;3.30;3.00;;;20.40;99.90;;;;;;6223985;23;20035;-93
2022/07/13 01:00:38;;;;;;;3.60;3.30;;;20.30;99.90;;;;;;6227848;23;20009;-91
2022/07/13 01:03:12;;;;;;;4.68;3.50;;;20.40;99.90;;;;;;6205794;23;20112;-90
2022/07/13 01:05:43;;;;;;;3.28;2.97;;;20.30;99.90;;;;;;6206755;23;20012;-89
2022/07/13 01:08:11;;;;;;;3.40;3.10;;;20.40;99.90;;;;;;6230294;23;20012;-88
2022/07/13 01:10:42;;;;;;;4.28;3.10;;;20.30;99.90;;;;;;6233610;23;20020;-89
2022/07/13 01:13:16;;;;;;;3.75;3.30;;;20.40;99.90;;;;;;6231547;23;20012;-89
2022/07/13 01:15:47;;;;;;;5.55;3.60;;;20.40;99.90;;;;;;6231327;23;20038;-89
2022/07/13 01:18:36;;;;;;;3.35;3.05;;;20.40;99.90;;;;;;6203240;23;20008;-93
2022/07/13 01:21:15;;;;;;;3.80;3.50;;;20.40;99.90;;;;;;6215363;23;20047;-91
2022/07/13 01:23:47;;;;;;;4.20;3.80;;;20.40;99.90;;;;;;6225446;23;20012;-89
2022/07/13 01:26:22;;;;;;;5.20;4.28;;;20.40;99.90;;;;;;6200317;23;20054;-90
2022/07/13 01:28:48;;;;;;;4.47;3.55;;;20.50;99.90;;;;;;6228024;23;20023;-90
2022/07/13 01:31:45;;;;;;;4.68;4.22;;;20.40;99.90;;;;;;6224874;23;20019;-88
2022/07/13 01:34:13;;;;;;;3.95;3.65;;;20.40;99.90;;;;;;6222759;23;20025;-93
2022/07/13 01:39:35;;;;;;;4.38;3.97;;;20.50;99.90;;;;;;6248021;23;20731;-92
2022/07/13 01:42:03;;;;;;;6.40;4.28;;;20.30;99.90;;;;;;6232604;23;20103;-90
2022/07/13 01:44:32;;;;;;;5.07;4.38;;;20.50;99.90;;;;;;6232813;23;20468;-89
2022/07/13 01:47:16;;;;;;;5.13;4.05;;;20.30;99.90;;;;;;6233691;23;20047;-90
2022/07/13 01:49:54;;;;;;;4.22;3.90;;;20.30;99.90;;;;;;6205518;23;20023;-92
2022/07/13 01:52:26;;;;;;;4.57;4.07;;;20.20;99.90;;;;;;6229741;23;20054;-89
2022/07/13 01:55:03;;;;;;;4.10;3.80;;;20.20;99.90;;;;;;6210253;23;20451;-93
2022/07/13 01:57:29;;;;;;;4.65;4.25;;;20.20;99.90;;;;;;6225581;23;20074;-88
2022/07/13 02:00:00;;;;;;;4.80;4.30;;;20.20;99.90;;;;;;6230524;23;20036;-91
2022/07/13 02:02:29;;;;;;;5.28;4.10;;;20.20;99.90;;;;;;6205338;23;20016;-90
2022/07/13 02:04:55;;;;;;;5.13;4.32;;;20.10;99.90;;;;;;6231458;23;20047;-91
2022/07/13 02:07:22;;;;;;;6.32;4.70;;;20.20;99.90;;;;;;6231662;23;20020;-88
2022/07/13 02:09:52;;;;;;;5.65;4.90;;;20.30;99.90;;;;;;6231109;23;20016;-90
2022/07/13 02:12:18;;;;;;;5.35;4.85;;;20.30;99.90;;;;;;6227204;23;20047;-90
2022/07/13 02:14:46;;;;;;;5.43;4.38;;;20.30;99.90;;;;;;6229400;23;20074;-91
2022/07/13 02:17:42;;;;;;;5.22;4.82;;;20.30;99.90;;;;;;6227716;23;20552;-94
2022/07/13 02:20:18;;;;;;;6.35;5.25;;;20.20;99.90;;;;;;6200591;23;20012;-90
2022/07/13 02:22:45;;;;;;;5.47;4.97;;;20.20;99.90;;;;;;6205001;23;20016;-89
2022/07/13 02:25:17;;;;;;;6.22;5.63;;;20.20;99.90;;;;;;6229728;23;20043;-90
2022/07/13 02:27:44;;;;;;;6.30;5.35;;;20.20;99.90;;;;;;6231972;23;20016;-89
2022/07/13 02:30:12;;;;;;;6.55;5.82;;;20.60;99.90;;;;;;6231714;23;20012;-90
2022/07/13 02:32:39;;;;;;;6.07;5.47;;;20.60;99.90;;;;;;6204742;23;20040;-88
2022/07/13 02:35:06;;;;;;;6.75;6.10;;;20.10;99.90;;;;;;6233198;23;20026;-88
2022/07/13 02:37:35;;;;;;;7.40;6.03;;;20.10;99.90;;;;;;6232030;23;20023;-88
2022/07/13 02:40:04;;;;;;;7.18;6.07;;;20.10;99.90;;;;;;6232531;23;20018;-89
2022/07/13 02:42:34;;;;;;;6.43;5.82;;;20.10;99.90;;;;;;6209083;23;20070;-88
2022/07/13 02:45:02;;;;;;;7.03;6.32;;;20.10;99.90;;;;;;6232474;23;20008;-89
2022/07/13 02:47:32;;;;;;;6.70;5.40;;;20.00;99.90;;;;;;6232664;23;20082;-89
2022/07/13 02:49:57;;;;;;;5.93;5.32;;;20.00;99.90;;;;;;6234840;23;20016;-90
2022/07/13 02:52:24;;;;;;;6.90;6.30;;;20.00;99.90;;;;;;6233059;23;20062;-90
2022/07/13 02:55:03;;;;;;;8.07;6.50;;;20.00;99.90;;;;;;6209102;23;20012;-90
2022/07/13 02:57:32;;;;;;;7.03;5.88;;;20.00;99.90;;;;;;6208305;23;20020;-90
2022/07/13 02:59:58;;;;;;;6.07;5.47;;;20.00;99.90;;;;;;6232472;23;20034;-88
2022/07/13 03:02:27;;;;;;;7.45;6.20;;;20.00;99.90;;;;;;6233049;23;20314;-89
2022/07/13 03:04:53;;;;;;;7.95;6.20;;;20.00;99.90;;;;;;6231118;23;20023;-89
2022/07/13 03:07:19;;;;;;;6.18;5.60;;;20.00;99.90;;;;;;6233305;23;20048;-89
2022/07/13 03:09:48;;;;;;;7.70;6.10;;;20.00;99.90;;;;;;6209000;23;20015;-88
2022/07/13 03:12:18;;;;;;;7.20;5.38;;;19.90;99.90;;;;;;6234847;23;20016;-88
2022/07/13 03:14:44;;;;;;;6.65;5.90;;;20.00;99.90;;;;;;6233795;23;20023;-88
2022/07/13 03:17:11;;;;;;;6.13;5.53;;;19.40;99.90;;;;;;6233860;23;20016;-90
2022/07/13 03:19:39;;;;;;;6.75;6.15;;;20.00;99.90;;;;;;6233667;23;20016;-89
2022/07/13 03:22:05;;;;;;;7.03;6.10;;;20.00;99.90;;;;;;6235439;23;20012;-89
2022/07/13 03:24:32;;;;;;;6.47;5.70;;;20.00;99.90;;;;;;6233146;23;20073;-87
2022/07/13 03:26:58;;;;;;;7.55;6.60;;;20.00;99.90;;;;;;6233217;23;20016;-88
2022/07/13 03:29:24;;;;;;;6.13;5.53;;;19.90;99.90;;;;;;6233833;23;20023;-89
2022/07/13 03:31:50;;;;;;;7.80;6.32;;;19.90;99.90;;;;;;6233118;23;20016;-88
2022/07/13 03:34:18;;;;;;;7.00;6.30;;;20.00;99.90;;;;;;6258454;23;20022;-88
2022/07/13 03:36:44;;;;;;;6.47;5.85;;;20.00;99.90;;;;;;6234619;23;20016;-88
2022/07/13 03:39:15;;;;;;;7.72;6.65;;;20.10;99.90;;;;;;6232951;23;20077;-89
2022/07/13 03:41:44;;;;;;;6.30;5.70;;;20.00;99.90;;;;;;6231505;23;20016;-89
2022/07/13 03:44:12;;;;;;;6.88;5.95;;;20.00;99.90;;;;;;6233302;23;20019;-89
2022/07/13 03:46:41;;;;;;;6.78;6.18;;;20.30;99.90;;;;;;6231262;23;20016;-89
2022/07/13 03:49:12;;;;;;;6.60;5.90;;;20.10;99.90;;;;;;6235473;23;20386;-89
2022/07/13 03:51:38;;;;;;;6.82;6.13;;;19.90;99.90;;;;;;6208265;23;20337;-89
2022/07/13 04:01:51;;;;;;;6.53;5.93;;;20.00;99.90;;;;;;6209062;23;20040;-92
2022/07/13 04:04:34;;;;;;;5.82;5.32;;;20.00;99.90;;;;;;6172103;23;20020;-91
2022/07/13 04:07:11;;;;;;;7.32;5.68;;;20.00;99.90;;;;;;6150926;23;20008;-91
2022/07/13 04:09:38;;;;;;;6.35;5.72;;;20.00;99.90;;;;;;6144882;23;20035;-91
2022/07/13 04:12:07;;;;;;;6.13;5.47;;;20.00;99.90;;;;;;6118687;23;20013;-91
2022/07/13 04:14:34;;;;;;;6.03;5.53;;;20.00;99.90;;;;;;6140617;23;20031;-91
2022/07/13 04:17:35;;;;;;;6.18;5.57;;;20.00;99.90;;;;;;6147212;23;20012;-91
2022/07/13 04:20:08;;;;;;;5.45;4.95;;;19.90;99.90;;;;;;6152822;23;20381;-92
2022/07/13 04:22:35;;;;;;;5.90;5.30;;;19.90;99.90;;;;;;6171289;23;20393;-94
2022/07/13 04:25:05;;;;;;;6.47;5.68;;;20.00;99.90;;;;;;6142941;23;20462;-95
2022/07/13 04:27:31;;;;;;;6.28;5.68;;;19.90;99.90;;;;;;6166493;23;20070;-96
2022/07/13 04:30:08;;;;;;;5.95;4.90;;;19.90;99.90;;;;;;6144156;23;20017;-93
2022/07/13 04:32:34;;;;;;;6.77;4.60;;;20.00;99.90;;;;;;6166303;23;20025;-94
2022/07/13 04:35:00;;;;;;;5.53;5.03;;;20.00;99.90;;;;;;6166743;23;20039;-95
2022/07/13 04:37:26;;;;;;;5.88;5.20;;;20.00;99.90;;;;;;6166905;23;20077;-95
2022/07/13 04:39:52;;;;;;;6.60;6.00;;;20.00;99.90;;;;;;6142808;23;20009;-95
2022/07/13 04:42:19;;;;;;;6.40;5.80;;;19.90;99.90;;;;;;6143286;23;20012;-95
2022/07/13 04:45:12;;;;;;;5.60;4.97;;;19.80;99.90;;;;;;6149907;23;20016;-92
2022/07/13 04:47:58;;;;;;;5.50;5.00;;;20.00;99.90;;;;;;6178378;23;20011;-91
2022/07/13 04:50:33;;;;;;;5.95;5.35;;;20.10;99.90;;;;;;6174116;23;20064;-92
2022/07/13 04:53:26;;;;;;;6.00;5.40;;;20.00;99.90;;;;;;6185455;23;20070;-92
2022/07/13 04:55:59;;;;;;;6.22;5.65;;;20.00;99.90;;;;;;6174618;23;20092;-92
2022/07/13 04:58:28;;;;;;;5.32;4.82;;;20.00;99.90;;;;;;6148192;23;20012;-90
2022/07/13 05:01:12;;;;;;;6.53;5.57;;;20.00;99.90;;;;;;6138594;23;20477;-93
2022/07/13 05:03:38;;;;;;;5.40;4.90;;;20.00;99.90;;;;;;6138804;23;20466;-94
2022/07/13 05:06:04;;;;;;;6.13;5.55;;;20.10;99.90;;;;;;6090595;23;20028;-94
2022/07/13 05:08:34;;;;;;;5.97;5.38;;;20.20;99.90;;;;;;6114180;23;20016;-94
2022/07/13 05:11:10;;;;;;;5.80;5.30;;;20.00;99.90;;;;;;6140925;23;20041;-96
2022/07/13 05:13:56;;;;;;;5.43;4.95;;;19.90;99.90;;;;;;6114867;23;20020;-95
2022/07/13 05:16:28;;;;;;;5.63;5.07;;;20.10;99.90;;;;;;6168191;23;20017;-92
2022/07/13 05:19:18;;;;;;;5.65;5.05;;;20.10;99.90;;;;;;6104684;23;20012;-92
2022/07/13 05:21:55;;;;;;;6.15;5.55;;;20.10;99.90;;;;;;6146776;23;20021;-91
2022/07/13 05:28:21;;;;;;;5.82;4.55;;;20.20;99.90;;;;;;6100693;23;20041;-91
2022/07/13 05:31:09;;;;;;;6.65;4.88;;;20.20;99.90;;;;;;6088640;23;20073;-90
2022/07/13 05:33:41;;;;;;;5.45;4.95;;;20.20;99.90;;;;;;6146230;23;20021;-91
2022/07/13 05:36:45;;;;;;;5.68;5.18;;;20.20;99.90;;;;;;6151907;23;20025;-90
2022/07/13 05:39:12;;;;;;;6.65;5.55;;;20.20;99.90;;;;;;6140237;23;20204;-91
2022/07/13 05:41:58;;;;;;;5.75;5.20;;;20.20;99.90;;;;;;6094599;23;20070;-92
2022/07/13 05:44:24;;;;;;;6.30;5.65;;;20.20;99.90;;;;;;6095698;23;20009;-92
2022/07/13 05:46:54;;;;;;;6.38;5.60;;;20.20;99.90;;;;;;6090431;23;20021;-91
2022/07/13 05:49:20;;;;;;;6.30;5.70;;;20.20;99.90;;;;;;6090760;23;20468;-92
2022/07/13 05:52:19;;;;;;;6.57;5.97;;;20.20;99.90;;;;;;6095630;23;20028;-92
2022/07/13 05:55:01;;;;;;;7.97;5.70;;;19.90;99.90;;;;;;6137366;23;20024;-93
2022/07/13 05:57:32;;;;;;;6.47;5.47;;;20.30;99.90;;;;;;6092090;23;20408;-92
2022/07/13 05:59:59;;;;;;;6.25;5.20;;;20.40;99.90;;;;;;6165023;23;20020;-92
2022/07/13 06:02:25;;;;;;;6.95;6.30;;;20.30;99.90;;;;;;6141064;23;20461;-93
2022/07/13 06:04:50;;;;;;;9.52;6.13;;;20.30;99.90;;;;;;6141575;23;20036;-92
2022/07/13 06:07:17;;;;;;;8.68;6.53;;;20.30;99.90;;;;;;6166366;23;20024;-93
2022/07/13 06:09:42;;;;;;;7.10;6.38;;;20.40;99.90;;;;;;6193613;23;20019;-92
2022/07/13 06:12:12;;;;;;;7.75;6.93;;;20.40;99.90;;;;;;6164323;23;20354;-93
2022/07/13 06:14:52;;;;;;;7.20;6.30;;;20.40;99.90;;;;;;6140708;23;20128;-92
2022/07/13 06:17:29;;;;;;;9.88;6.57;;;20.40;99.90;;;;;;6145355;23;20064;-93
2022/07/13 06:20:09;;;;;;;10.02;7.05;;;20.40;99.90;;;;;;6143810;23;20013;-93
2022/07/13 06:22:39;;;;;;;7.40;6.40;;;20.40;99.90;;;;;;6131318;23;20131;-92
2022/07/13 06:25:08;;;;;;;8.07;7.28;;;20.40;99.90;;;;;;6167024;23;20020;-92
2022/07/13 06:27:42;;;;;;;9.13;6.75;;;20.50;99.90;;;;;;6150051;23;20020;-93
2022/07/13 06:30:18;;;;;;;8.65;7.03;;;20.50;99.90;;;;;;6149841;23;20020;-93
2022/07/13 06:32:45;;;;;;;11.15;7.95;;;20.50;99.90;;;;;;6179776;23;20032;-92
2022/07/13 06:35:12;;;;;;;10.35;7.13;;;20.70;99.90;;;;;;6154716;23;20013;-92
2022/07/13 06:37:38;;;;;;;9.18;7.53;;;20.80;99.90;;;;;;6166337;23;20020;-91
2022/07/13 06:40:07;;;;;;;11.65;8.00;;;20.90;99.90;;;;;;6144715;23;20329;-92
2022/07/13 06:42:42;;;;;;;10.30;7.45;;;21.10;99.90;;;;;;6121917;23;20079;-91
2022/07/13 06:45:13;;;;;;;9.00;7.88;;;21.10;99.90;;;;;;6155663;23;20009;-92
2022/07/13 06:47:43;;;;;;;10.80;7.95;;;21.10;99.90;;;;;;6146432;23;20016;-91
2022/07/13 06:50:16;;;;;;;8.77;7.43;;;21.50;99.90;;;;;;6127477;23;20022;-90
2022/07/13 06:52:47;;;;;;;8.75;7.47;;;21.40;99.90;;;;;;6176640;23;20020;-91
2022/07/13 06:55:30;;;;;;;8.48;7.60;;;21.50;99.90;;;;;;6152163;23;20068;-92
2022/07/13 06:57:56;;;;;;;10.07;8.23;;;21.50;99.90;;;;;;6172026;23;20061;-92
2022/07/13 07:00:23;;;;;;;10.27;8.27;;;21.80;99.90;;;;;;6123766;23;20017;-92
2022/07/13 07:03:03;;;;;;;;;;;;;;;;;;;;;
2022/07/13 07:05:48;;;;;;;10.60;7.90;;;22.20;99.90;;;;;;6202794;23;20009;-91
2022/07/13 07:08:31;;;;;;;9.48;7.72;;;22.40;99.90;;;;;;6144238;23;20017;-91
2022/07/13 07:11:29;;;;;;;9.52;8.35;;;22.60;99.90;;;;;;6122066;23;20013;-91
2022/07/13 07:13:55;;;;;;;8.27;7.25;;;22.60;99.90;;;;;;6156866;23;20097;-92
2022/07/13 07:16:29;;;;;;;8.75;7.53;;;22.80;99.90;;;;;;6164928;23;20050;-90
2022/07/13 07:18:55;;;;;;;9.68;7.65;;;22.90;99.90;;;;;;6145972;23;20020;-91
2022/07/13 07:21:27;;;;;;;9.30;7.75;;;22.90;99.90;;;;;;6148743;23;20096;-91
2022/07/13 07:23:56;;;;;;;8.93;7.43;;;23.00;99.90;;;;;;6153726;23;20020;-93
2022/07/13 07:26:35;;;;;;;9.18;7.50;;;23.10;99.90;;;;;;6172703;23;20017;-92
2022/07/13 07:29:01;;;;;;;8.82;7.93;;;23.30;99.90;;;;;;6149438;23;20016;-94
2022/07/13 07:31:52;;;;;;;8.70;7.78;;;23.30;99.90;;;;;;6182449;23;20021;-93
2022/07/13 07:34:19;;;;;;;9.38;7.85;;;23.20;99.90;;;;;;6155603;23;20048;-93
2022/07/13 07:36:54;;;;;;;8.43;7.63;;;23.30;99.90;;;;;;6195174;23;20023;-91
2022/07/13 07:39:22;;;;;;;11.20;8.27;;;23.40;99.90;;;;;;6147739;23;20003;-91
2022/07/13 07:42:03;;;;;;;10.85;8.27;;;23.40;99.90;;;;;;6183254;23;20040;-96
2022/07/13 07:44:30;;;;;;;12.73;8.20;;;23.40;99.90;;;;;;6145475;23;20013;-92
2022/07/13 07:47:02;;;;;;;8.23;7.30;;;23.60;99.90;;;;;;6164159;23;20049;-92
2022/07/13 07:49:32;;;;;;;7.28;6.57;;;23.70;99.90;;;;;;6146429;23;20065;-92
2022/07/13 07:52:16;;;;;;;8.88;7.05;;;23.50;99.90;;;;;;6118827;23;20017;-92
2022/07/13 07:54:59;;;;;;;9.68;7.05;;;23.60;99.90;;;;;;6143933;23;20023;-93
2022/07/13 07:57:25;;;;;;;9.10;7.07;;;23.40;99.90;;;;;;6168829;23;20062;-92
2022/07/13 07:59:54;;;;;;;8.15;6.82;;;23.60;99.90;;;;;;6119460;23;20044;-90
2022/07/13 08:02:23;;;;;;;8.30;7.32;;;23.60;99.90;;;;;;6174511;23;20085;-94
2022/07/13 08:04:55;;;;;;;9.10;7.13;;;23.60;99.90;;;;;;6146683;23;20068;-93
2022/07/13 08:07:21;;;;;;;9.57;6.93;;;23.60;99.90;;;;;;6146884;23;20016;-93
2022/07/13 08:09:47;;;;;;;7.68;6.85;;;24.00;99.90;;;;;;6168792;23;20051;-91
2022/07/13 08:12:15;;;;;;;9.32;7.40;;;23.80;99.90;;;;;;6174199;23;20027;-92
2022/07/13 08:14:52;;;;;;;8.73;7.65;;;23.80;99.90;;;;;;6145530;23;20091;-91
2022/07/13 08:17:28;;;;;;;10.55;7.60;;;23.90;99.90;;;;;;6171490;23;20130;-92
2022/07/13 08:19:58;;;;;;;9.90;7.63;;;23.90;99.90;;;;;;6150451;23;20477;-93
2022/07/13 08:22:27;;;;;;;8.38;6.93;;;24.00;99.90;;;;;;6179852;23;20016;-90
2022/07/13 08:24:53;;;;;;;8.80;7.15;;;23.80;99.90;;;;;;6131070;23;19997;-93
2022/07/13 08:27:22;;;;;;;8.55;7.13;;;24.20;99.90;;;;;;6172206;23;20378;-91
2022/07/13 08:29:48;;;;;;;9.48;7.30;;;24.10;99.90;;;;;;6146988;23;20040;-92
2022/07/13 08:32:18;;;;;;;10.25;7.30;;;24.20;99.90;;;;;;6173158;23;20016;-95
2022/07/13 08:40:59;;;;;;;8.57;7.35;;;24.10;99.90;;;;;;6202250;23;20012;-92
2022/07/13 08:43:29;;;;;;;8.95;7.50;;;24.50;99.90;;;;;;6150533;23;20008;-93
2022/07/13 08:45:56;;;;;;;8.00;7.20;;;24.50;99.90;;;;;;6176904;23;20082;-93
2022/07/13 08:48:37;;;;;;;9.07;7.65;;;24.70;99.90;;;;;;6176033;23;20019;-95
2022/07/13 08:51:16;;;;;;;8.43;6.60;;;24.90;99.90;;;;;;6177719;23;20070;-93
2022/07/13 08:53:45;;;;;;;7.60;6.65;;;24.70;99.90;;;;;;6159803;23;20016;-94
2022/07/13 08:56:16;;;;;;;6.32;5.72;;;25.10;99.90;;;;;;6149139;23;20442;-91
2022/07/13 08:58:46;;;;;;;7.43;5.95;;;24.80;99.90;;;;;;6149786;23;20009;-94
2022/07/13 09:01:12;;;;;;;7.00;6.30;;;25.10;99.90;;;;;;6149716;23;20048;-92
2022/07/13 09:03:42;;;;;;;8.60;6.72;;;25.10;99.90;;;;;;6173038;23;20020;-93
2022/07/13 09:06:47;;;;;;;8.05;5.82;;;25.10;99.90;;;;;;6198516;23;20048;-94
2022/07/13 09:09:33;;;;;;;6.65;5.57;;;25.20;99.90;;;;;;6192164;23;20020;-91
2022/07/13 09:12:19;;;;;;;5.35;4.18;;;25.40;99.90;;;;;;6199971;23;20023;-95
2022/07/13 09:15:03;;;;;;;6.43;3.63;;;25.40;99.90;;;;;;6152074;23;20061;-92
2022/07/13 09:17:43;;;;;;;5.18;4.68;;;25.60;99.90;;;;;;6171478;23;20075;-93
2022/07/13 09:20:15;;;;;;;8.77;4.97;;;25.80;99.90;;;;;;6175870;23;20012;-94
2022/07/13 09:22:51;;;;;;;5.55;4.00;;;26.00;99.90;;;;;;6203291;23;20027;-92
2022/07/13 09:25:39;;;;;;;3.92;3.50;;;25.90;99.90;;;;;;6178043;23;20080;-92
2022/07/13 09:28:10;;;;;;;4.68;3.65;;;26.10;99.90;;;;;;6150121;23;20017;-94
2022/07/13 09:30:42;;;;;;;4.47;3.42;;;26.60;99.90;;;;;;6153626;23;20007;-93
2022/07/13 09:33:12;;;;;;;5.20;4.30;;;26.50;99.90;;;;;;6176355;23;20016;-92
2022/07/13 09:36:00;;;;;;;4.82;4.05;;;26.60;99.90;;;;;;6150090;23;20016;-93
2022/07/13 09:38:38;;;;;;;5.15;3.58;;;26.80;99.90;;;;;;6150145;23;20066;-92
2022/07/13 09:41:24;;;;;;;4.45;3.15;;;26.80;99.90;;;;;;6148148;23;20442;-94
2022/07/13 09:47:32;;;;;;;6.35;3.97;;;27.00;99.90;;;;;;6196686;23;20021;-91
2022/07/13 09:49:59;;;;;;;5.78;3.92;;;27.20;99.90;;;;;;6137903;23;20379;-93
2022/07/13 09:52:31;;;;;;;4.57;3.85;;;27.40;99.90;;;;;;6147063;23;20017;-91
2022/07/13 09:55:00;;;;;;;5.68;3.35;;;27.50;99.90;;;;;;6180888;23;20027;-92
2022/07/13 09:57:28;;;;;;;6.53;3.72;;;27.70;99.90;;;;;;6173073;23;20069;-92
2022/07/13 09:59:58;;;;;;;4.95;3.78;;;27.70;99.90;;;;;;6169864;23;20044;-92
2022/07/13 10:02:28;;;;;;;5.65;3.78;;;27.60;99.90;;;;;;6171811;23;20027;-93
2022/07/13 10:04:57;;;;;;;7.80;3.60;;;27.70;99.90;;;;;;6178929;23;20012;-92
2022/07/13 10:07:24;;;;;;;5.03;3.22;;;27.50;99.90;;;;;;6175414;23;20074;-91
2022/07/13 10:09:51;;;;;;;3.63;3.33;;;27.50;99.90;;;;;;6152859;23;20398;-94
2022/07/13 10:12:20;;;;;;;4.28;2.97;;;27.90;99.90;;;;;;6156959;23;20013;-93
2022/07/13 10:14:48;;;;;;;3.95;3.00;;;27.70;99.90;;;;;;6155387;23;20050;-94
2022/07/13 10:17:19;;;;;;;4.30;3.05;;;27.80;99.90;;;;;;6172960;23;20350;-94
2022/07/13 10:20:08;;;;;;;3.88;3.28;;;27.80;99.90;;;;;;6177204;23;20012;-93
2022/07/13 10:23:01;;;;;;;5.20;3.10;;;27.70;99.90;;;;;;6175550;23;20019;-92
2022/07/13 10:25:45;;;;;;;3.85;2.70;;;28.20;99.90;;;;;;6187130;23;19996;-93
2022/07/13 10:28:12;;;;;;;3.75;2.95;;;27.80;99.90;;;;;;6181697;23;20017;-94
2022/07/13 10:30:42;;;;;;;4.72;2.65;;;27.70;99.90;;;;;;6183381;23;20051;-94
2022/07/13 10:33:19;;;;;;;3.20;2.42;;;27.40;99.90;;;;;;6131284;23;20017;-93
2022/07/13 10:35:52;;;;;;;3.65;2.30;;;27.70;99.90;;;;;;6205695;23;20027;-95
2022/07/13 10:38:20;;;;;;;2.92;2.22;;;27.90;99.90;;;;;;6175105;23;20446;-94
2022/07/13 10:40:49;;;;;;;2.90;2.20;;;27.80;99.90;;;;;;6204170;23;20003;-94
2022/07/13 10:43:16;;;;;;;4.10;2.53;;;27.90;99.90;;;;;;6176718;23;20019;-91
2022/07/13 10:45:44;;;;;;;4.95;3.20;;;27.50;99.90;;;;;;6174534;23;20016;-93
2022/07/13 10:48:17;;;;;;;3.25;2.70;;;27.90;99.90;;;;;;6149623;23;20009;-93
2022/07/13 10:50:45;;;;;;;3.05;2.10;;;27.90;99.90;;;;;;6198294;23;20036;-93
2022/07/13 10:53:12;;;;;;;2.85;2.60;;;27.80;99.90;;;;;;6178958;23;20015;-94
2022/07/13 10:55:49;;;;;;;4.68;2.47;;;27.90;99.90;;;;;;6159536;23;20020;-95
2022/07/13 10:58:30;;;;;;;2.42;2.22;;;28.00;99.90;;;;;;6183907;23;20013;-93
2022/07/13 11:01:00;;;;;;;2.70;2.50;;;28.00;99.90;;;;;;6203654;23;20021;-91
2022/07/13 11:03:37;;;;;;;4.45;3.17;;;28.00;99.90;;;;;;6150856;23;20094;-92
2022/07/13 11:06:08;;;;;;;4.07;2.90;;;27.90;99.90;;;;;;6179863;23;20024;-93
2022/07/13 11:09:06;;;;;;;5.18;3.20;;;27.90;99.90;;;;;;6154025;23;20007;-93
2022/07/13 11:11:45;;;;;;;3.30;2.95;;;27.70;96.20;;;;;;6188062;23;20022;-94
2022/07/13 11:14:40;;;;;;;4.63;3.08;;;27.60;89.80;;;;;;6180580;23;20013;-93
2022/07/13 11:17:15;;;;;;;5.78;3.13;;;27.60;87.10;;;;;;6203446;23;20016;-95
2022/07/13 11:20:01;;;;;;;3.10;2.80;;;27.30;94.10;;;;;;6178606;23;20012;-92
2022/07/13 11:26:01;;;;;;;3.63;3.20;;;27.80;92.00;;;;;;6197421;23;20102;-93
2022/07/13 11:28:44;;;;;;;3.00;2.70;;;27.60;85.40;;;;;;6183001;23;20000;-92
2022/07/13 11:31:14;;;;;;;2.50;2.30;;;27.50;88.10;;;;;;6179736;23;20013;-92
2022/07/13 11:33:53;;;;;;;3.35;2.60;;;27.40;93.80;;;;;;6129917;23;20028;-90
2022/07/13 11:36:24;;;;;;;4.80;2.28;;;27.30;92.00;;;;;;6156280;23;20023;-92
2022/07/13 11:38:51;;;;;;;3.05;2.40;;;27.20;98.40;;;;;;6156885;23;20151;-92
2022/07/13 11:41:23;;;;;;;3.80;2.50;;;26.70;99.90;;;;;;6180833;23;20016;-90
2022/07/13 11:43:55;;;;;;;3.65;2.90;;;26.60;99.90;;;;;;6195265;23;20012;-91
2022/07/13 11:46:26;;;;;;;5.22;2.70;;;26.50;99.90;;;;;;6171579;23;20024;-91
2022/07/13 11:49:05;;;;;;;3.10;2.80;;;26.50;99.90;;;;;;6151707;23;20072;-93
2022/07/13 11:51:34;;;;;;;4.80;2.75;;;26.00;99.90;;;;;;6173677;23;20072;-92
2022/07/13 11:54:21;;;;;;;3.28;2.47;;;26.00;99.90;;;;;;6177107;23;20017;-92
2022/07/13 11:57:09;;;;;;;2.85;1.98;;;26.30;99.90;;;;;;6173937;23;20017;-92
2022/07/13 11:59:39;;;;;;;5.50;2.40;;;26.30;99.90;;;;;;6146661;23;20017;-90
2022/07/13 12:02:11;;;;;;;3.03;1.98;;;26.00;99.90;;;;;;6143537;23;20017;-91
2022/07/13 12:04:48;;;;;;;9.57;2.80;;;26.10;99.90;;;;;;6195068;23;20009;-90
2022/07/13 12:07:23;;;;;;;5.10;2.55;;;25.90;99.90;;;;;;6171027;23;20442;-93
2022/07/13 12:09:56;;;;;;;4.97;2.40;;;25.90;99.90;;;;;;6168770;23;20019;-92
2022/07/13 12:12:25;;;;;;;2.28;2.08;;;25.80;99.90;;;;;;6167462;23;20016;-92
2022/07/13 12:14:52;;;;;;;3.15;1.98;;;25.70;99.90;;;;;;6173806;23;20075;-88
2022/07/13 12:17:27;;;;;;;3.42;1.98;;;25.80;99.90;;;;;;6175082;23;20044;-92
2022/07/13 12:20:09;;;;;;;2.70;1.92;;;25.70;99.90;;;;;;6178219;23;20012;-92
2022/07/13 12:22:36;;;;;;;3.17;1.83;;;25.80;99.90;;;;;;6173483;23;20020;-92
2022/07/13 12:25:03;;;;;;;2.55;1.90;;;25.40;99.90;;;;;;6169798;23;20071;-91
2022/07/13 12:27:39;;;;;;;4.95;1.90;;;25.50;99.90;;;;;;6148270;23;20017;-95
2022/07/13 12:30:13;;;;;;;3.10;2.05;;;25.50;99.90;;;;;;6153009;23;20069;-90
2022/07/13 12:32:59;;;;;;;3.88;2.00;;;25.20;99.90;;;;;;6149587;23;20027;-91
2022/07/13 12:35:30;;;;;;;2.80;1.88;;;25.50;99.90;;;;;;6177909;23;20016;-93
2022/07/13 12:38:03;;;;;;;4.97;1.95;;;25.50;99.90;;;;;;6175726;23;20020;-93
2022/07/13 12:40:45;;;;;;;5.60;2.40;;;25.50;99.90;;;;;;6180676;23;19997;-93
2022/07/13 12:43:17;;;;;;;4.72;2.20;;;25.60;99.90;;;;;;6183276;23;20020;-93
2022/07/13 12:45:56;;;;;;;5.15;2.33;;;25.60;99.90;;;;;;6208595;23;20036;-92
2022/07/13 12:48:27;;;;;;;3.80;2.42;;;25.60;99.90;;;;;;6173480;23;20019;-92
2022/07/13 12:51:08;;;;;;;6.03;2.50;;;25.30;99.90;;;;;;6178284;23;20013;-92
2022/07/13 12:54:00;;;;;;;4.28;2.20;;;25.30;99.90;;;;;;6186154;23;20017;-92
2022/07/13 12:56:27;;;;;;;5.05;2.42;;;25.40;99.90;;;;;;6175661;23;20020;-94
2022/07/13 12:58:57;;;;;;;4.57;2.20;;;25.20;99.90;;;;;;6174279;23;20020;-92
2022/07/13 13:01:29;;;;;;;5.15;2.50;;;25.30;99.90;;;;;;6172543;23;20044;-91
2022/07/13 13:03:57;;;;;;;5.68;2.40;;;25.20;99.90;;;;;;6196046;23;20016;-91
2022/07/13 13:06:29;;;;;;;4.25;2.38;;;25.40;99.90;;;;;;6185128;23;20000;-92
2022/07/13 13:09:07;;;;;;;6.00;2.20;;;25.20;99.90;;;;;;6131465;23;20012;-94
2022/07/13 13:11:34;;;;;;;4.07;2.25;;;25.10;99.90;;;;;;6183514;23;20023;-92
2022/07/13 13:14:16;;;;;;;3.95;2.08;;;24.90;99.90;;;;;;6159609;23;20005;-93
2022/07/13 13:16:56;;;;;;;4.15;2.08;;;24.90;99.90;;;;;;6190625;23;20025;-94
2022/07/13 13:19:23;;;;;;;6.07;2.30;;;24.90;99.90;;;;;;6179773;23;20349;-94
2022/07/13 13:21:49;;;;;;;3.95;2.35;;;25.10;99.90;;;;;;6173512;23;20017;-93
2022/07/13 13:24:15;;;;;;;5.70;2.10;;;25.00;99.90;;;;;;6148107;23;20012;-93
2022/07/13 13:26:52;;;;;;;2.72;2.20;;;25.10;99.90;;;;;;6152978;23;20067;-92
2022/07/13 13:32:23;;;;;;;5.68;2.22;;;25.00;99.90;;;;;;6197447;23;20031;-94
2022/07/13 13:34:56;;;;;;;4.80;2.30;;;25.00;99.90;;;;;;6172619;23;20023;-92
2022/07/13 13:37:22;;;;;;;3.25;1.88;;;24.70;99.90;;;;;;6153983;23;20017;-92
2022/07/13 13:39:48;;;;;;;4.47;1.98;;;24.70;99.90;;;;;;6177303;23;20012;-92
2022/07/13 13:42:14;;;;;;;3.25;2.03;;;24.80;99.90;;;;;;6161549;23;20004;-92
2022/07/13 13:44:43;;;;;;;6.72;1.92;;;24.90;99.90;;;;;;6132161;23;20418;-93
2022/07/13 13:47:09;;;;;;;3.58;2.05;;;24.90;99.90;;;;;;6176711;23;20439;-93